createdAt,value
2023-02-22T00:01:35.954Z,5.43
2023-02-22T00:04:10.485Z,5.38
2023-02-22T00:06:42.997Z,5.38
2023-02-22T00:09:20.868Z,5.44
2023-02-22T00:11:52.970Z,5.40
2023-02-22T00:14:27.636Z,5.41
2023-02-22T00:17:00.066Z,5.43
2023-02-22T00:19:32.699Z,5.45
2023-02-22T00:22:05.188Z,5.47
2023-02-22T00:24:37.460Z,5.53
2023-02-22T00:27:09.518Z,5.59
2023-02-22T00:29:45.663Z,5.62
2023-02-22T00:32:17.936Z,5.65
2023-02-22T00:34:54.944Z,5.70
2023-02-22T00:37:27.411Z,5.74
2023-02-22T00:39:59.629Z,5.79
2023-02-22T00:42:32.032Z,5.84
2023-02-22T00:45:04.997Z,5.87
2023-02-22T00:47:37.472Z,5.88
2023-02-22T00:50:11.394Z,5.86
2023-02-22T00:52:44.373Z,5.85
2023-02-22T00:55:21.547Z,5.84
2023-02-22T00:57:54.478Z,5.85
2023-02-22T01:00:30.386Z,5.91
2023-02-22T01:03:02.862Z,5.88
2023-02-22T01:05:35.646Z,5.89
2023-02-22T01:08:11.505Z,5.88
2023-02-22T01:10:44.818Z,5.90
2023-02-22T01:13:19.365Z,5.90
2023-02-22T01:15:52.005Z,5.88
2023-02-22T01:18:26.181Z,5.92
2023-02-22T01:20:58.458Z,5.92
2023-02-22T01:23:31.020Z,5.84
2023-02-22T01:26:05.995Z,5.94
2023-02-22T01:28:38.480Z,6.05
2023-02-22T01:31:11.403Z,6.03
2023-02-22T01:33:44.805Z,6.02
2023-02-22T01:36:16.956Z,6.00
2023-02-22T01:38:49.286Z,6.02
2023-02-22T01:41:22.708Z,6.05
2023-02-22T01:43:54.962Z,6.13
2023-02-22T01:46:29.980Z,6.20
2023-02-22T01:49:06.489Z,6.28
2023-02-22T01:51:44.859Z,6.35
2023-02-22T01:54:21.656Z,6.34
2023-02-22T01:57:01.514Z,6.32
2023-02-22T01:59:38.226Z,6.23
2023-02-22T02:02:10.644Z,6.18
2023-02-22T02:04:43.792Z,6.17
2023-02-22T02:07:21.240Z,6.15
2023-02-22T02:09:59.128Z,6.15
2023-02-22T02:12:36.129Z,6.07
2023-02-22T02:15:24.488Z,6.00
2023-02-22T02:18:00.922Z,5.98
2023-02-22T02:20:40.313Z,5.95
2023-02-22T02:23:26.798Z,5.96
2023-02-22T02:29:23.924Z,6.08
2023-02-22T02:32:22.759Z,6.08
2023-02-22T02:35:00.356Z,6.11
2023-02-22T02:37:42.627Z,6.14
2023-02-22T02:40:25.415Z,6.15
2023-02-22T02:43:08.489Z,6.22
2023-02-22T02:45:48.766Z,6.26
2023-02-22T02:48:26.833Z,6.25
2023-02-22T02:51:02.309Z,6.17
2023-02-22T02:53:39.141Z,6.14
2023-02-22T02:56:11.761Z,6.19
2023-02-22T02:58:50.281Z,6.21
2023-02-22T03:01:33.644Z,6.20
2023-02-22T03:04:32.055Z,6.15
2023-02-22T03:07:21.810Z,6.10
2023-02-22T03:10:10.183Z,6.10
2023-02-22T03:12:50.383Z,6.15
2023-02-22T03:15:36.619Z,6.10
2023-02-22T03:18:17.898Z,6.01
2023-02-22T03:20:56.842Z,5.95
2023-02-22T03:23:35.615Z,5.94
2023-02-22T03:26:13.263Z,5.93
2023-02-22T03:28:49.102Z,5.79
2023-02-22T03:31:27.642Z,5.66
2023-02-22T03:34:03.188Z,5.55
2023-02-22T03:36:40.834Z,5.49
2023-02-22T03:39:17.496Z,5.54
2023-02-22T03:41:52.650Z,5.62
2023-02-22T03:44:32.340Z,5.67
2023-02-22T03:47:12.330Z,5.67
2023-02-22T03:49:51.164Z,5.77
2023-02-22T03:52:25.300Z,5.82
2023-02-22T03:54:57.541Z,5.84
2023-02-22T03:57:33.338Z,5.80
2023-02-22T04:00:14.071Z,5.62
2023-02-22T04:02:47.064Z,5.46
2023-02-22T04:05:25.121Z,5.40
2023-02-22T04:07:58.481Z,5.35
2023-02-22T04:10:33.544Z,5.30
2023-02-22T04:13:07.277Z,5.23
2023-02-22T04:15:41.926Z,5.17
2023-02-22T04:18:15.641Z,5.10
2023-02-22T04:20:48.192Z,5.04
2023-02-22T04:23:29.719Z,5.01
2023-02-22T04:26:03.607Z,4.94
2023-02-22T04:28:36.410Z,4.91
2023-02-22T04:31:29.554Z,4.97
2023-02-22T04:34:04.723Z,4.97
2023-02-22T04:36:42.512Z,4.98
2023-02-22T04:39:15.258Z,5.01
2023-02-22T04:41:49.693Z,5.04
2023-02-22T04:44:21.908Z,5.05
2023-02-22T04:46:54.251Z,5.07
2023-02-22T04:49:26.964Z,5.10
2023-02-22T04:52:00.647Z,5.08
2023-02-22T04:54:40.057Z,5.02
2023-02-22T04:57:12.349Z,4.93
2023-02-22T04:59:44.617Z,4.88
2023-02-22T05:02:17.865Z,4.80
2023-02-22T05:04:50.757Z,4.71
2023-02-22T05:07:23.076Z,4.63
2023-02-22T05:09:55.180Z,4.58
2023-02-22T05:12:29.853Z,4.54
2023-02-22T05:15:02.122Z,4.55
2023-02-22T05:17:34.446Z,4.49
2023-02-22T05:20:08.739Z,4.44
2023-02-22T05:22:41.402Z,4.41
2023-02-22T05:25:13.972Z,4.28
2023-02-22T05:27:46.786Z,4.22
2023-02-22T05:30:19.102Z,4.16
2023-02-22T05:32:51.500Z,4.02
2023-02-22T05:35:24.625Z,3.90
2023-02-22T05:37:57.711Z,3.83
2023-02-22T05:40:30.501Z,3.65
2023-02-22T05:43:03.185Z,3.75
2023-02-22T05:45:36.320Z,3.78
2023-02-22T05:48:09.339Z,3.63
2023-02-22T05:50:42.008Z,3.63
2023-02-22T05:53:19.000Z,3.65
2023-02-22T05:55:51.733Z,3.64
2023-02-22T05:58:24.066Z,3.63
2023-02-22T06:00:56.923Z,3.63
2023-02-22T06:03:29.323Z,3.67
2023-02-22T06:06:01.639Z,3.69
2023-02-22T06:08:33.955Z,3.73
2023-02-22T06:11:06.238Z,3.96
2023-02-22T06:13:38.499Z,4.07
2023-02-22T06:16:11.226Z,4.06
2023-02-22T06:18:43.475Z,4.07
2023-02-22T06:21:15.896Z,4.11
2023-02-22T06:23:48.481Z,4.16
2023-02-22T06:26:21.166Z,4.15
2023-02-22T06:28:53.508Z,4.25
2023-02-22T06:31:25.665Z,4.38
2023-02-22T06:34:04.236Z,4.45
2023-02-22T06:36:36.840Z,4.59
2023-02-22T06:39:11.307Z,4.69
2023-02-22T06:41:45.037Z,4.69
2023-02-22T06:44:18.525Z,4.75
2023-02-22T06:46:54.226Z,4.78
2023-02-22T06:49:27.982Z,4.75
2023-02-22T06:52:00.462Z,4.83
2023-02-22T06:54:33.044Z,4.92
2023-02-22T06:57:05.823Z,5.01
2023-02-22T06:59:37.997Z,5.08
2023-02-22T07:02:11.075Z,5.16
2023-02-22T07:04:43.742Z,5.42
2023-02-22T07:07:16.793Z,5.66
2023-02-22T07:09:50.391Z,5.81
2023-02-22T07:12:22.842Z,5.96
2023-02-22T07:14:59.057Z,6.08
2023-02-22T07:17:31.266Z,6.18
2023-02-22T07:20:04.186Z,6.27
2023-02-22T07:22:36.862Z,6.45
2023-02-22T07:25:14.532Z,6.62
2023-02-22T07:27:48.250Z,6.79
2023-02-22T07:30:26.257Z,6.91
2023-02-22T07:32:59.409Z,7.02
2023-02-22T07:35:36.756Z,7.06
2023-02-22T07:38:10.074Z,6.90
2023-02-22T07:40:43.423Z,6.81
2023-02-22T07:43:21.970Z,6.76
2023-02-22T07:45:56.970Z,6.69
2023-02-22T07:48:31.009Z,6.64
2023-02-22T07:51:03.551Z,6.68
2023-02-22T07:53:36.170Z,6.78
2023-02-22T07:56:09.146Z,6.85
2023-02-22T07:58:41.449Z,6.97
2023-02-22T08:01:14.698Z,7.16
2023-02-22T08:03:47.791Z,7.37
2023-02-22T08:06:21.045Z,7.52
2023-02-22T08:08:54.142Z,7.59
2023-02-22T08:11:26.954Z,7.62
2023-02-22T08:14:01.095Z,7.62
2023-02-22T08:16:33.444Z,7.54
2023-02-22T08:19:06.491Z,7.52
2023-02-22T08:21:38.899Z,7.49
2023-02-22T08:24:11.313Z,7.54
2023-02-22T08:26:49.126Z,7.52
2023-02-22T08:29:23.951Z,7.55
2023-02-22T08:31:56.394Z,7.61
2023-02-22T08:34:29.376Z,7.62
2023-02-22T08:37:01.681Z,7.70
2023-02-22T08:39:33.846Z,7.82
2023-02-22T08:42:06.224Z,7.89
2023-02-22T08:44:38.454Z,7.98
2023-02-22T08:47:11.152Z,8.01
2023-02-22T08:49:43.397Z,8.07
2023-02-22T08:52:15.677Z,8.14
2023-02-22T08:54:50.877Z,8.27
2023-02-22T08:57:23.078Z,8.39
2023-02-22T08:59:55.220Z,8.45
2023-02-22T09:02:27.890Z,8.43
2023-02-22T09:05:00.670Z,8.38
2023-02-22T09:07:33.196Z,8.35
2023-02-22T09:10:06.182Z,8.31
2023-02-22T09:12:38.715Z,8.37
2023-02-22T09:15:13.792Z,8.51
2023-02-22T09:17:47.089Z,8.62
2023-02-22T09:20:22.565Z,8.70
2023-02-22T09:22:56.129Z,8.83
2023-02-22T09:25:29.969Z,8.94
2023-02-22T09:28:02.824Z,9.07
2023-02-22T09:30:44.427Z,9.12
2023-02-22T09:33:19.516Z,9.24
2023-02-22T09:35:52.329Z,9.30
2023-02-22T09:38:26.773Z,9.27
2023-02-22T09:41:16.054Z,9.31
2023-02-22T09:43:57.728Z,9.38
2023-02-22T09:46:39.069Z,9.41
2023-02-22T09:49:25.238Z,9.38
2023-02-22T09:52:04.029Z,9.29
2023-02-22T09:54:41.414Z,9.26
2023-02-22T09:57:17.479Z,9.21
2023-02-22T10:00:00.003Z,9.16
2023-02-22T10:02:39.334Z,9.16
2023-02-22T10:05:20.801Z,9.23
2023-02-22T10:08:07.826Z,9.23
2023-02-22T10:10:49.003Z,9.36
2023-02-22T10:13:30.229Z,9.49
2023-02-22T10:16:11.005Z,9.61
2023-02-22T10:18:55.646Z,9.70
2023-02-22T10:21:57.870Z,9.89
2023-02-22T10:24:41.437Z,10.02
2023-02-22T10:27:29.872Z,10.09
2023-02-22T10:30:23.891Z,10.19
2023-02-22T10:33:06.038Z,10.28
2023-02-22T10:35:41.874Z,10.11
2023-02-22T10:38:16.786Z,9.88
2023-02-22T10:40:56.481Z,9.71
2023-02-22T10:43:29.375Z,9.66
2023-02-22T10:46:06.829Z,9.64
2023-02-22T10:48:42.546Z,9.52
2023-02-22T10:51:14.889Z,9.42
2023-02-22T10:53:54.989Z,9.39
2023-02-22T10:56:28.869Z,9.37
2023-02-22T10:59:06.279Z,9.43
2023-02-22T11:01:41.898Z,9.38
2023-02-22T11:04:19.480Z,9.40
2023-02-22T11:07:09.268Z,9.48
2023-02-22T11:09:52.439Z,9.56
2023-02-22T11:12:30.900Z,9.55
2023-02-22T11:15:30.520Z,9.60
2023-02-22T11:18:02.883Z,9.68
2023-02-22T11:20:40.695Z,10.02
2023-02-22T11:23:13.781Z,10.49
2023-02-22T11:25:46.538Z,11.32
2023-02-22T11:28:31.308Z,12.17
2023-02-22T11:31:19.159Z,12.13
2023-02-22T11:36:41.007Z,11.59
2023-02-22T11:39:28.855Z,11.28
2023-02-22T11:42:24.485Z,11.39
2023-02-22T11:45:23.020Z,11.53
2023-02-22T11:48:03.127Z,11.58
2023-02-22T11:50:47.826Z,11.60
2023-02-22T11:53:33.348Z,11.62
2023-02-22T11:56:28.365Z,11.63
2023-02-22T11:59:22.756Z,11.54
2023-02-22T12:02:00.466Z,11.47
2023-02-22T12:04:50.020Z,11.42
2023-02-22T12:07:38.606Z,11.38
2023-02-22T12:10:26.540Z,11.30
2023-02-22T12:13:11.961Z,11.23
2023-02-22T12:15:57.048Z,11.25
2023-02-22T12:18:37.637Z,11.22
2023-02-22T12:21:17.946Z,11.16
2023-02-22T12:23:55.843Z,10.94
2023-02-22T12:26:38.604Z,10.81
2023-02-22T12:29:25.218Z,10.80
2023-02-22T12:32:02.249Z,10.79
2023-02-22T12:34:41.487Z,10.89
2023-02-22T12:37:24.087Z,10.93
2023-02-22T12:40:08.644Z,10.89
2023-02-22T12:42:51.338Z,10.75
2023-02-22T12:45:37.568Z,10.74
2023-02-22T12:48:26.663Z,10.65
2023-02-22T12:51:19.210Z,10.67
2023-02-22T12:54:01.694Z,10.72
2023-02-22T12:56:38.860Z,10.77
2023-02-22T12:59:20.896Z,10.91
2023-02-22T13:02:07.121Z,10.95
2023-02-22T13:04:42.679Z,11.04
2023-02-22T13:07:32.604Z,11.28
2023-02-22T13:10:39.752Z,11.61
2023-02-22T13:13:21.642Z,11.98
2023-02-22T13:16:02.662Z,12.19
2023-02-22T13:18:43.532Z,12.42
2023-02-22T13:21:25.241Z,12.62
2023-02-22T13:24:05.594Z,12.81
2023-02-22T13:26:43.791Z,12.87
2023-02-22T13:29:22.554Z,12.95
2023-02-22T13:32:34.953Z,12.94
2023-02-22T13:35:31.856Z,12.87
2023-02-22T13:38:33.488Z,12.77
2023-02-22T13:41:27.629Z,12.87
2023-02-22T13:44:26.084Z,12.83
2023-02-22T13:47:25.609Z,12.78
2023-02-22T13:50:31.255Z,13.01
2023-02-22T13:53:10.156Z,13.18
2023-02-22T13:55:47.918Z,13.26
2023-02-22T13:58:30.600Z,13.32
2023-02-22T14:01:05.460Z,13.35
2023-02-22T14:03:47.338Z,13.53
2023-02-22T14:06:41.910Z,13.77
2023-02-22T14:09:20.132Z,14.12
2023-02-22T14:11:57.024Z,14.44
2023-02-22T14:14:31.409Z,14.54
2023-02-22T14:17:32.863Z,14.53
2023-02-22T14:20:30.187Z,14.38
2023-02-22T14:23:31.133Z,13.93
2023-02-22T14:26:15.506Z,13.51
2023-02-22T14:29:01.379Z,13.24
2023-02-22T14:31:55.150Z,13.01
2023-02-22T14:34:48.921Z,12.52
2023-02-22T14:37:25.911Z,12.00
2023-02-22T14:40:13.223Z,11.73
2023-02-22T14:42:51.196Z,11.59
2023-02-22T14:45:30.107Z,11.48
2023-02-22T14:48:13.782Z,11.50
2023-02-22T14:50:52.363Z,11.50
2023-02-22T14:53:34.732Z,11.48
2023-02-22T14:56:12.186Z,11.52
2023-02-22T14:58:50.702Z,11.51
2023-02-22T15:01:47.322Z,11.44
2023-02-22T15:04:25.728Z,11.47
2023-02-22T15:07:01.198Z,11.25
2023-02-22T15:09:37.706Z,11.01
2023-02-22T15:12:25.957Z,10.94
2023-02-22T15:15:15.172Z,10.85
2023-02-22T15:17:49.928Z,10.67
2023-02-22T15:20:25.228Z,10.51
2023-02-22T15:23:03.499Z,10.38
2023-02-22T15:25:39.373Z,10.36
2023-02-22T15:28:16.612Z,10.37
2023-02-22T15:31:19.844Z,10.36
2023-02-22T15:34:10.628Z,10.29
2023-02-22T15:36:45.451Z,10.15
2023-02-22T15:39:27.294Z,10.01
2023-02-22T15:42:08.712Z,9.83
2023-02-22T15:44:43.945Z,9.66
2023-02-22T15:47:20.741Z,9.49
2023-02-22T15:50:23.518Z,9.37
2023-02-22T15:52:59.936Z,9.22
2023-02-22T15:55:36.007Z,9.09
2023-02-22T15:58:13.178Z,8.99
2023-02-22T16:00:50.271Z,8.88
2023-02-22T16:03:27.811Z,8.81
2023-02-22T16:06:01.915Z,8.73
2023-02-22T16:08:54.364Z,8.63
2023-02-22T16:11:32.130Z,8.55
2023-02-22T16:14:07.205Z,8.50
2023-02-22T16:16:41.822Z,8.42
2023-02-22T16:19:34.738Z,8.35
2023-02-22T16:22:13.912Z,8.28
2023-02-22T16:24:52.394Z,8.22
2023-02-22T16:27:26.742Z,8.18
2023-02-22T16:30:25.845Z,8.14
2023-02-22T16:33:00.036Z,8.10
2023-02-22T16:35:35.753Z,8.05
2023-02-22T16:38:17.194Z,8.01
2023-02-22T16:40:54.860Z,7.96
2023-02-22T16:43:29.618Z,7.94
2023-02-22T16:46:03.383Z,7.92
2023-02-22T16:48:38.629Z,7.89
2023-02-22T16:51:19.537Z,7.87
2023-02-22T16:53:52.169Z,7.86
2023-02-22T16:56:30.804Z,7.85
2023-02-22T16:59:15.628Z,7.84
2023-02-22T17:01:48.021Z,7.83
2023-02-22T17:04:24.200Z,7.76
2023-02-22T17:06:59.129Z,7.72
2023-02-22T17:09:32.010Z,7.65
2023-02-22T17:12:05.734Z,7.62
2023-02-22T17:14:41.106Z,7.57
2023-02-22T17:17:15.915Z,7.53
2023-02-22T17:19:48.152Z,7.50
2023-02-22T17:22:22.827Z,7.46
2023-02-22T17:24:56.303Z,7.45
2023-02-22T17:27:28.455Z,7.41
2023-02-22T17:30:00.937Z,7.36
2023-02-22T17:32:33.109Z,7.30
2023-02-22T17:35:05.946Z,7.26
2023-02-22T17:37:38.791Z,7.19
2023-02-22T17:40:14.833Z,7.14
2023-02-22T17:42:50.527Z,7.09
2023-02-22T17:45:24.766Z,7.05
2023-02-22T17:47:59.346Z,7.04
2023-02-22T17:50:32.495Z,7.02
2023-02-22T17:53:05.282Z,7.02
2023-02-22T17:55:41.270Z,7.06
2023-02-22T17:58:15.239Z,7.08
2023-02-22T18:00:50.095Z,7.11
2023-02-22T18:03:26.200Z,7.10
2023-02-22T18:06:00.775Z,7.11
2023-02-22T18:08:33.789Z,7.13
2023-02-22T18:11:07.848Z,7.13
2023-02-22T18:13:40.721Z,7.09
2023-02-22T18:16:13.170Z,7.06
2023-02-22T18:18:45.770Z,7.05
2023-02-22T18:21:18.661Z,7.02
2023-02-22T18:23:50.897Z,6.99
2023-02-22T18:26:26.631Z,6.95
2023-02-22T18:29:01.308Z,6.91
2023-02-22T18:31:33.797Z,6.87
2023-02-22T18:34:07.394Z,6.83
2023-02-22T18:36:39.904Z,6.78
2023-02-22T18:39:13.408Z,6.74
2023-02-22T18:41:48.832Z,6.70
2023-02-22T18:44:21.136Z,6.67
2023-02-22T18:46:53.912Z,6.62
2023-02-22T18:49:27.173Z,6.58
2023-02-22T18:51:59.907Z,6.52
2023-02-22T18:54:32.539Z,6.47
2023-02-22T18:57:05.035Z,6.43
2023-02-22T18:59:38.514Z,6.39
2023-02-22T19:02:15.393Z,6.32
2023-02-22T19:04:47.756Z,6.27
2023-02-22T19:07:22.395Z,6.26
2023-02-22T19:09:54.912Z,6.21
2023-02-22T19:12:27.739Z,6.26
2023-02-22T19:15:00.654Z,6.33
2023-02-22T19:17:36.700Z,6.45
2023-02-22T19:20:10.760Z,6.48
2023-02-22T19:22:43.945Z,6.54
2023-02-22T19:25:16.263Z,6.59
2023-02-22T19:27:48.766Z,6.58
2023-02-22T19:30:21.634Z,6.60
2023-02-22T19:32:53.926Z,6.52
2023-02-22T19:35:29.683Z,6.48
2023-02-22T19:38:02.065Z,6.43
2023-02-22T19:40:34.794Z,6.37
2023-02-22T19:43:07.273Z,6.33
2023-02-22T19:45:42.024Z,6.33
2023-02-22T19:48:15.115Z,6.33
2023-02-22T19:50:49.917Z,6.30
2023-02-22T19:53:22.159Z,6.22
2023-02-22T19:55:54.458Z,6.18
2023-02-22T19:58:27.151Z,6.19
2023-02-22T20:00:59.788Z,6.15
2023-02-22T20:03:35.468Z,6.12
2023-02-22T20:06:09.690Z,6.09
2023-02-22T20:08:43.294Z,6.01
2023-02-22T20:11:17.069Z,5.97
2023-02-22T20:13:50.189Z,5.90
2023-02-22T20:16:22.971Z,5.86
2023-02-22T20:18:56.266Z,5.84
2023-02-22T20:21:32.130Z,5.81
2023-02-22T20:24:07.793Z,5.79
2023-02-22T20:26:41.168Z,5.84
2023-02-22T20:29:15.662Z,5.85
2023-02-22T20:31:53.777Z,5.89
2023-02-22T20:34:31.461Z,5.91
2023-02-22T20:37:05.022Z,5.85
2023-02-22T20:39:38.012Z,5.75
2023-02-22T20:42:11.861Z,5.59
2023-02-22T20:44:45.405Z,5.53
2023-02-22T20:47:17.979Z,5.52
2023-02-22T20:49:51.060Z,5.44
2023-02-22T20:52:23.860Z,5.30
2023-02-22T20:54:57.873Z,5.22
2023-02-22T20:57:30.907Z,5.16
2023-02-22T21:00:03.364Z,5.11
2023-02-22T21:02:36.006Z,5.11
2023-02-22T21:05:09.888Z,5.02
2023-02-22T21:07:42.488Z,4.91
2023-02-22T21:10:16.057Z,4.84
2023-02-22T21:12:50.163Z,4.85
2023-02-22T21:15:26.163Z,4.81
2023-02-22T21:17:58.862Z,4.77
2023-02-22T21:20:31.441Z,4.79
2023-02-22T21:23:04.891Z,4.79
2023-02-22T21:25:37.919Z,4.79
2023-02-22T21:28:10.367Z,4.78
2023-02-22T21:30:43.181Z,4.78
2023-02-22T21:33:17.096Z,4.76
2023-02-22T21:35:50.841Z,4.77
2023-02-22T21:38:23.647Z,4.80
2023-02-22T21:40:58.563Z,4.77
2023-02-22T21:43:32.001Z,4.81
2023-02-22T21:46:07.053Z,4.62
2023-02-22T21:48:44.735Z,4.50
2023-02-22T21:51:19.320Z,4.54
2023-02-22T21:53:53.496Z,4.50
2023-02-22T21:56:28.275Z,4.43
2023-02-22T21:59:03.198Z,4.37
2023-02-22T22:01:37.741Z,4.31
2023-02-22T22:04:10.114Z,4.25
2023-02-22T22:06:42.827Z,4.17
2023-02-22T22:09:23.570Z,4.08
2023-02-22T22:11:58.489Z,4.02
2023-02-22T22:14:31.258Z,3.90
2023-02-22T22:17:05.868Z,3.76
2023-02-22T22:19:40.996Z,3.69
2023-02-22T22:22:13.660Z,3.63
2023-02-22T22:24:46.614Z,3.53
2023-02-22T22:27:19.077Z,3.47
2023-02-22T22:29:52.012Z,3.45
2023-02-22T22:32:25.180Z,3.47
2023-02-22T22:34:59.446Z,3.56
2023-02-22T22:37:32.707Z,3.62
2023-02-22T22:40:05.804Z,3.67
2023-02-22T22:42:38.066Z,3.67
2023-02-22T22:45:11.923Z,3.62
2023-02-22T22:47:46.288Z,3.55
2023-02-22T22:50:23.736Z,3.42
2023-02-22T22:52:57.334Z,3.34
2023-02-22T22:55:29.779Z,3.30
2023-02-22T22:58:02.243Z,3.28
2023-02-22T23:00:37.596Z,3.23
2023-02-22T23:03:17.977Z,3.13
2023-02-22T23:05:51.130Z,3.06
2023-02-22T23:08:29.550Z,3.04
2023-02-22T23:11:09.296Z,2.99
2023-02-22T23:13:42.482Z,2.92
2023-02-22T23:16:15.445Z,2.85
2023-02-22T23:18:48.473Z,2.81
2023-02-22T23:21:24.548Z,2.82
2023-02-22T23:23:59.370Z,2.83
2023-02-22T23:26:33.038Z,2.89
2023-02-22T23:29:08.853Z,2.76
2023-02-22T23:31:41.329Z,2.65
2023-02-22T23:34:14.097Z,2.70
2023-02-22T23:36:46.999Z,2.72
2023-02-22T23:39:21.666Z,2.53
2023-02-22T23:41:55.174Z,2.44
2023-02-22T23:44:27.506Z,2.48
2023-02-22T23:46:59.857Z,2.50
2023-02-22T23:49:38.250Z,2.51
2023-02-22T23:52:13.587Z,2.51
2023-02-22T23:54:47.083Z,2.47
2023-02-22T23:57:19.780Z,2.45
2023-02-22T23:59:52.950Z,2.43
